createdAt,value
2018-02-27T00:00:02.253Z,70.11
2018-02-27T00:01:02.262Z,70.39
2018-02-27T00:02:55.158Z,70.20
2018-02-27T00:03:55.148Z,70.20
2018-02-27T00:05:48.046Z,69.83
2018-02-27T00:06:48.032Z,70.49
2018-02-27T00:08:40.922Z,70.39
2018-02-27T00:09:40.922Z,70.11
2018-02-27T00:11:33.825Z,70.20
2018-02-27T00:12:33.806Z,70.20
2018-02-27T00:14:26.687Z,70.77
2018-02-27T00:15:26.692Z,70.39
2018-02-27T00:17:19.596Z,70.77
2018-02-27T00:18:19.587Z,70.30
2018-02-27T00:20:12.460Z,70.73
2018-02-27T00:21:12.468Z,70.54
2018-02-27T00:23:05.367Z,70.26
2018-02-27T00:24:05.356Z,70.92
2018-02-27T00:25:58.263Z,70.64
2018-02-27T00:26:58.250Z,71.49
2018-02-27T00:28:51.127Z,71.21
2018-02-27T00:29:51.137Z,71.21
2018-02-27T00:31:44.033Z,70.73
2018-02-27T00:32:44.020Z,71.25
2018-02-27T00:34:36.905Z,71.06
2018-02-27T00:35:36.911Z,70.96
2018-02-27T00:37:29.807Z,71.02
2018-02-27T00:38:29.801Z,70.87
2018-02-27T00:40:22.672Z,71.49
2018-02-27T00:41:22.689Z,70.96
2018-02-27T00:43:15.576Z,71.02
2018-02-27T00:44:15.571Z,71.06
2018-02-27T00:46:08.459Z,70.96
2018-02-27T00:47:08.450Z,70.64
2018-02-27T00:49:01.327Z,71.15
2018-02-27T00:50:01.355Z,70.92
2018-02-27T00:51:54.230Z,70.64
2018-02-27T00:52:54.221Z,71.02
2018-02-27T00:54:47.245Z,71.02
2018-02-27T00:55:47.257Z,71.02
2018-02-27T00:57:40.150Z,70.73
2018-02-27T00:58:40.138Z,70.92
2018-02-27T01:00:33.016Z,70.17
2018-02-27T01:01:33.048Z,71.02
2018-02-27T01:03:25.920Z,71.11
2018-02-27T01:04:25.931Z,70.64
2018-02-27T01:06:18.810Z,71.02
2018-02-27T01:07:18.801Z,71.02
2018-02-27T01:09:11.670Z,71.40
2018-02-27T01:10:11.678Z,71.40
2018-02-27T01:12:04.576Z,70.92
2018-02-27T01:13:04.564Z,71.11
2018-02-27T01:14:57.443Z,71.11
2018-02-27T01:15:57.449Z,71.02
2018-02-27T01:17:50.345Z,71.11
2018-02-27T01:18:50.333Z,71.49
2018-02-27T01:20:43.210Z,71.30
2018-02-27T01:21:43.217Z,71.21
2018-02-27T01:23:36.124Z,71.11
2018-02-27T01:24:36.104Z,71.21
2018-02-27T01:26:29.011Z,71.11
2018-02-27T01:27:28.990Z,71.11
2018-02-27T01:29:21.881Z,71.58
2018-02-27T01:30:21.872Z,71.02
2018-02-27T01:32:14.784Z,71.21
2018-02-27T01:33:14.761Z,70.92
2018-02-27T01:35:07.659Z,71.21
2018-02-27T01:36:07.643Z,71.21
2018-02-27T01:38:00.538Z,71.21
2018-02-27T01:39:00.532Z,71.11
2018-02-27T01:40:53.408Z,71.11
2018-02-27T01:41:53.416Z,71.11
2018-02-27T01:43:46.314Z,71.02
2018-02-27T01:44:46.298Z,71.02
2018-02-27T01:46:39.193Z,70.92
2018-02-27T01:47:39.184Z,70.92
2018-02-27T01:49:32.064Z,71.21
2018-02-27T01:50:32.069Z,70.92
2018-02-27T01:52:24.966Z,71.58
2018-02-27T01:53:24.954Z,71.40
2018-02-27T01:55:17.831Z,71.58
2018-02-27T01:56:17.836Z,71.58
2018-02-27T01:58:10.735Z,71.77
2018-02-27T01:59:10.720Z,71.87
2018-02-27T02:01:03.602Z,72.34
2018-02-27T02:02:03.608Z,72.06
2018-02-27T02:03:56.504Z,71.87
2018-02-27T02:04:56.492Z,72.06
2018-02-27T02:06:49.390Z,71.68
2018-02-27T02:07:49.378Z,72.06
2018-02-27T02:09:42.261Z,71.68
2018-02-27T02:10:42.268Z,72.06
2018-02-27T02:12:35.164Z,72.62
2018-02-27T02:13:35.152Z,72.72
2018-02-27T02:15:28.028Z,72.81
2018-02-27T02:16:28.039Z,72.53
2018-02-27T02:18:20.932Z,72.72
2018-02-27T02:19:20.919Z,72.44
2018-02-27T02:21:13.796Z,73.00
2018-02-27T02:22:13.804Z,73.10
2018-02-27T02:24:06.707Z,73.19
2018-02-27T02:25:06.694Z,73.10
2018-02-27T02:26:59.616Z,73.00
2018-02-27T02:27:59.604Z,73.19
2018-02-27T02:29:52.480Z,73.10
2018-02-27T02:30:52.487Z,73.47
2018-02-27T02:32:45.410Z,73.57
2018-02-27T02:33:45.401Z,74.13
2018-02-27T02:35:38.290Z,73.75
2018-02-27T02:36:38.305Z,74.51
2018-02-27T02:38:31.199Z,74.04
2018-02-27T02:39:31.191Z,74.60
2018-02-27T02:41:24.085Z,75.26
2018-02-27T02:42:24.094Z,74.88
2018-02-27T02:44:16.989Z,75.45
2018-02-27T02:45:16.973Z,75.07
2018-02-27T02:47:09.876Z,74.79
2018-02-27T02:48:09.862Z,75.54
2018-02-27T02:50:02.739Z,75.36
2018-02-27T02:51:02.806Z,75.36
2018-02-27T02:52:55.643Z,76.11
2018-02-27T02:53:55.644Z,76.21
2018-02-27T02:55:48.509Z,76.02
2018-02-27T02:56:48.582Z,76.21
2018-02-27T02:58:41.408Z,76.30
2018-02-27T02:59:41.395Z,76.11
2018-02-27T03:01:34.272Z,76.58
2018-02-27T03:02:34.279Z,76.40
2018-02-27T03:04:27.178Z,76.11
2018-02-27T03:05:27.166Z,76.49
2018-02-27T03:07:20.066Z,76.21
2018-02-27T03:08:20.048Z,76.02
2018-02-27T03:10:12.951Z,75.92
2018-02-27T03:11:12.940Z,75.92
2018-02-27T03:13:05.853Z,76.02
2018-02-27T03:14:05.822Z,75.83
2018-02-27T03:15:58.697Z,75.83
2018-02-27T03:16:58.703Z,76.11
2018-02-27T03:18:51.597Z,75.92
2018-02-27T03:19:51.586Z,76.21
2018-02-27T03:21:44.475Z,75.54
2018-02-27T03:22:44.482Z,75.64
2018-02-27T03:24:37.378Z,75.92
2018-02-27T03:25:37.364Z,75.73
2018-02-27T03:27:30.270Z,76.02
2018-02-27T03:28:30.258Z,75.92
2018-02-27T03:30:23.139Z,75.54
2018-02-27T03:31:23.148Z,75.73
2018-02-27T03:33:16.038Z,75.64
2018-02-27T03:34:16.025Z,75.73
2018-02-27T03:36:08.906Z,75.92
2018-02-27T03:37:08.912Z,76.21
2018-02-27T03:39:01.810Z,76.02
2018-02-27T03:40:01.798Z,76.21
2018-02-27T03:41:54.674Z,76.02
2018-02-27T03:42:54.682Z,75.92
2018-02-27T03:44:47.579Z,75.92
2018-02-27T03:45:47.567Z,75.92
2018-02-27T03:47:40.461Z,76.21
2018-02-27T03:48:40.451Z,76.40
2018-02-27T03:50:33.322Z,76.17
2018-02-27T03:51:33.330Z,76.07
2018-02-27T03:53:26.231Z,76.64
2018-02-27T03:54:26.211Z,76.45
2018-02-27T03:56:19.088Z,76.64
2018-02-27T03:57:19.095Z,76.64
2018-02-27T03:59:11.990Z,76.82
2018-02-27T04:00:11.976Z,77.39
2018-02-27T04:02:04.858Z,77.11
2018-02-27T04:03:04.865Z,77.11
2018-02-27T04:04:57.759Z,77.30
2018-02-27T04:05:57.743Z,77.30
2018-02-27T04:07:50.649Z,77.49
2018-02-27T04:08:50.625Z,77.01
2018-02-27T04:10:43.522Z,77.30
2018-02-27T04:11:43.587Z,77.30
2018-02-27T04:13:36.424Z,77.58
2018-02-27T04:14:36.410Z,77.77
2018-02-27T04:16:29.283Z,77.86
2018-02-27T04:17:29.291Z,77.67
2018-02-27T04:19:22.188Z,77.86
2018-02-27T04:20:22.176Z,77.49
2018-02-27T04:22:15.052Z,77.77
2018-02-27T04:23:15.060Z,77.67
2018-02-27T04:25:07.953Z,77.11
2018-02-27T04:26:07.964Z,78.05
2018-02-27T04:28:00.884Z,77.67
2018-02-27T04:29:00.861Z,78.05
2018-02-27T04:30:53.743Z,78.05
2018-02-27T04:31:53.743Z,78.15
2018-02-27T04:33:46.632Z,78.62
2018-02-27T04:34:46.620Z,78.43
2018-02-27T04:36:39.494Z,78.34
2018-02-27T04:37:39.499Z,77.96
2018-02-27T04:39:32.399Z,78.15
2018-02-27T04:40:32.487Z,78.34
2018-02-27T04:42:25.262Z,78.90
2018-02-27T04:43:25.264Z,79.00
2018-02-27T04:45:18.165Z,78.81
2018-02-27T04:46:18.146Z,78.71
2018-02-27T04:48:11.060Z,79.19
2018-02-27T04:49:11.034Z,79.37
2018-02-27T04:51:03.912Z,79.09
2018-02-27T04:52:03.917Z,79.00
2018-02-27T04:53:56.823Z,79.28
2018-02-27T04:54:56.808Z,79.19
2018-02-27T04:56:49.686Z,78.81
2018-02-27T04:57:49.693Z,79.28
2018-02-27T04:59:42.588Z,79.09
2018-02-27T05:00:42.573Z,79.09
2018-02-27T05:02:35.449Z,79.00
2018-02-27T05:03:35.459Z,79.09
2018-02-27T05:05:28.352Z,79.47
2018-02-27T05:06:28.342Z,79.85
2018-02-27T05:08:21.232Z,79.66
2018-02-27T05:09:21.219Z,80.51
2018-02-27T05:11:14.096Z,80.32
2018-02-27T05:12:14.099Z,80.41
2018-02-27T05:14:06.994Z,80.32
2018-02-27T05:15:06.979Z,80.41
2018-02-27T05:16:59.853Z,79.94
2018-02-27T05:17:59.962Z,79.28
2018-02-27T05:19:52.754Z,79.37
2018-02-27T05:20:52.809Z,79.00
2018-02-27T05:22:45.622Z,79.28
2018-02-27T05:23:45.666Z,79.19
2018-02-27T05:25:38.531Z,79.19
2018-02-27T05:26:38.611Z,79.09
2018-02-27T05:28:31.408Z,79.00
2018-02-27T05:29:31.388Z,79.37
2018-02-27T05:31:24.265Z,79.19
2018-02-27T05:32:24.272Z,79.09
2018-02-27T05:34:17.166Z,79.09
2018-02-27T05:35:17.153Z,79.09
2018-02-27T05:37:10.028Z,79.19
2018-02-27T05:38:10.034Z,78.81
2018-02-27T05:40:02.947Z,79.66
2018-02-27T05:41:02.957Z,79.47
2018-02-27T05:42:55.827Z,79.66
2018-02-27T05:43:55.830Z,79.75
2018-02-27T05:45:48.736Z,79.56
2018-02-27T05:46:48.725Z,79.56
2018-02-27T05:48:41.634Z,79.47
2018-02-27T05:49:41.621Z,79.37
2018-02-27T05:51:34.497Z,79.47
2018-02-27T05:52:34.513Z,79.28
2018-02-27T05:54:27.402Z,79.28
2018-02-27T05:55:27.391Z,79.75
2018-02-27T05:57:20.259Z,79.94
2018-02-27T05:58:20.269Z,79.56
2018-02-27T06:00:13.162Z,80.32
2018-02-27T06:01:13.179Z,79.94
2018-02-27T06:03:06.024Z,79.94
2018-02-27T06:04:06.031Z,79.85
2018-02-27T06:05:58.924Z,79.75
2018-02-27T06:06:58.915Z,79.47
2018-02-27T06:08:51.816Z,79.47
2018-02-27T06:09:51.800Z,79.47
2018-02-27T06:11:44.681Z,80.04
2018-02-27T06:12:44.684Z,79.85
2018-02-27T06:14:37.590Z,79.66
2018-02-27T06:15:37.573Z,79.94
2018-02-27T06:17:30.445Z,79.66
2018-02-27T06:18:30.459Z,79.85
2018-02-27T06:20:23.350Z,79.94
2018-02-27T06:21:23.337Z,80.04
2018-02-27T06:23:16.210Z,80.60
2018-02-27T06:24:16.216Z,79.85
2018-02-27T06:26:09.255Z,79.75
2018-02-27T06:27:09.245Z,80.04
2018-02-27T06:29:02.140Z,79.85
2018-02-27T06:30:02.127Z,79.66
2018-02-27T06:31:55.011Z,79.85
2018-02-27T06:32:55.016Z,79.85
2018-02-27T06:34:47.927Z,79.94
2018-02-27T06:35:47.902Z,79.75
2018-02-27T06:37:40.786Z,79.85
2018-02-27T06:38:40.786Z,79.85
2018-02-27T06:40:33.696Z,79.75
2018-02-27T06:41:33.680Z,79.75
2018-02-27T06:43:26.585Z,79.85
2018-02-27T06:44:26.563Z,79.85
2018-02-27T06:46:19.460Z,79.66
2018-02-27T06:47:19.446Z,79.66
2018-02-27T06:49:12.348Z,79.75
2018-02-27T06:50:12.333Z,80.04
2018-02-27T06:52:05.215Z,79.75
2018-02-27T06:53:05.220Z,79.75
2018-02-27T06:54:58.116Z,79.47
2018-02-27T06:55:58.105Z,79.94
2018-02-27T06:57:50.984Z,79.56
2018-02-27T06:58:50.990Z,79.79
2018-02-27T07:00:43.890Z,79.56
2018-02-27T07:01:43.877Z,79.56
2018-02-27T07:03:36.754Z,80.22
2018-02-27T07:04:36.774Z,80.32
2018-02-27T07:06:29.660Z,79.88
2018-02-27T07:07:29.647Z,79.69
2018-02-27T07:09:22.560Z,79.88
2018-02-27T07:10:22.540Z,79.50
2018-02-27T07:12:15.440Z,79.60
2018-02-27T07:13:15.427Z,79.32
2018-02-27T07:15:08.334Z,79.13
2018-02-27T07:16:08.323Z,78.94
2018-02-27T07:18:01.202Z,79.13
2018-02-27T07:19:01.209Z,79.03
2018-02-27T07:20:54.110Z,79.13
2018-02-27T07:21:54.095Z,78.85
2018-02-27T07:23:46.979Z,79.03
2018-02-27T07:24:46.984Z,79.03
2018-02-27T07:26:39.875Z,79.22
2018-02-27T07:27:39.864Z,79.22
2018-02-27T07:29:32.760Z,78.75
2018-02-27T07:30:32.748Z,78.47
2018-02-27T07:32:25.627Z,78.66
2018-02-27T07:33:25.636Z,79.03
2018-02-27T07:35:18.562Z,79.32
2018-02-27T07:36:18.523Z,78.85
2018-02-27T07:38:11.399Z,78.38
2018-02-27T07:39:11.407Z,78.38
2018-02-27T07:41:04.461Z,77.91
2018-02-27T07:42:04.417Z,78.56
2018-02-27T07:43:57.294Z,78.19
2018-02-27T07:44:57.304Z,78.47
2018-02-27T07:46:50.199Z,78.09
2018-02-27T07:47:50.190Z,77.53
2018-02-27T07:49:43.633Z,77.06
2018-02-27T07:50:43.073Z,77.81
2018-02-27T07:52:35.993Z,77.91
2018-02-27T07:53:35.969Z,77.81
2018-02-27T07:55:28.882Z,78.85
2018-02-27T07:56:28.861Z,78.98
2018-02-27T07:58:21.771Z,78.42
2018-02-27T07:59:21.751Z,77.25
2018-02-27T08:01:14.684Z,76.87
2018-02-27T08:02:14.672Z,77.15
2018-02-27T08:04:07.572Z,76.68
2018-02-27T08:05:07.572Z,76.49
2018-02-27T08:07:00.496Z,76.68
2018-02-27T08:08:00.483Z,76.11
2018-02-27T08:09:53.386Z,76.40
2018-02-27T08:10:53.374Z,76.40
2018-02-27T08:12:46.256Z,76.68
2018-02-27T08:13:46.282Z,76.49
2018-02-27T08:15:39.180Z,76.11
2018-02-27T08:16:39.166Z,76.02
2018-02-27T08:18:32.075Z,76.30
2018-02-27T08:19:32.078Z,76.21
2018-02-27T08:21:24.978Z,76.11
2018-02-27T08:22:24.967Z,75.92
2018-02-27T08:24:17.845Z,76.11
2018-02-27T08:25:17.853Z,75.87
2018-02-27T08:27:10.762Z,76.06
2018-02-27T08:28:10.747Z,75.96
2018-02-27T08:30:03.640Z,76.06
2018-02-27T08:31:03.646Z,75.68
2018-02-27T08:32:56.512Z,74.74
2018-02-27T08:33:56.519Z,74.92
2018-02-27T08:35:49.432Z,74.92
2018-02-27T08:36:49.410Z,74.83
2018-02-27T08:38:42.296Z,74.26
2018-02-27T08:39:42.299Z,73.88
2018-02-27T08:41:35.202Z,74.07
2018-02-27T08:42:35.194Z,73.22
2018-02-27T08:44:28.068Z,73.13
2018-02-27T08:45:28.078Z,72.56
2018-02-27T08:47:20.982Z,72.09
2018-02-27T08:48:20.972Z,72.09
2018-02-27T08:50:13.879Z,72.09
2018-02-27T08:51:13.867Z,71.81
2018-02-27T08:53:06.753Z,71.62
2018-02-27T08:54:06.758Z,71.81
2018-02-27T08:55:59.663Z,71.72
2018-02-27T08:56:59.651Z,71.43
2018-02-27T08:58:52.546Z,70.96
2018-02-27T08:59:52.540Z,71.25
2018-02-27T09:01:45.475Z,71.06
2018-02-27T09:02:45.441Z,71.25
2018-02-27T09:04:38.319Z,70.49
2018-02-27T09:05:38.327Z,70.30
2018-02-27T09:07:31.235Z,70.02
2018-02-27T09:08:31.217Z,70.02
2018-02-27T09:10:24.123Z,69.86
2018-02-27T09:11:24.110Z,69.30
2018-02-27T09:13:16.995Z,68.73
2018-02-27T09:14:17.003Z,67.97
2018-02-27T09:16:09.914Z,68.82
2018-02-27T09:17:09.901Z,68.63
2018-02-27T09:19:02.785Z,67.69
2018-02-27T09:20:02.794Z,67.22
2018-02-27T09:21:55.701Z,67.50
2018-02-27T09:22:55.689Z,67.22
2018-02-27T09:24:48.584Z,66.65
2018-02-27T09:25:48.589Z,66.65
2018-02-27T09:27:41.490Z,67.50
2018-02-27T09:28:41.481Z,67.50
2018-02-27T09:30:34.395Z,67.03
2018-02-27T09:31:34.387Z,67.13
2018-02-27T09:33:27.290Z,66.28
2018-02-27T09:34:27.279Z,66.75
2018-02-27T09:36:20.203Z,66.47
2018-02-27T09:37:20.194Z,67.13
2018-02-27T09:39:13.082Z,67.13
2018-02-27T09:40:13.088Z,67.60
2018-02-27T09:42:06.002Z,66.65
2018-02-27T09:43:05.993Z,66.75
2018-02-27T09:44:58.880Z,66.75
2018-02-27T09:45:58.891Z,67.03
2018-02-27T09:47:51.796Z,66.47
2018-02-27T09:48:51.787Z,66.75
2018-02-27T09:50:44.742Z,66.65
2018-02-27T09:51:44.736Z,66.65
2018-02-27T09:53:39.135Z,66.47
2018-02-27T09:54:39.127Z,67.32
2018-02-27T09:56:32.528Z,66.28
2018-02-27T09:57:32.520Z,66.28
2018-02-27T09:59:25.432Z,65.90
2018-02-27T10:00:25.418Z,66.47
2018-02-27T10:02:18.327Z,66.09
2018-02-27T10:03:18.329Z,65.99
2018-02-27T10:05:11.206Z,66.09
2018-02-27T10:06:11.216Z,66.18
2018-02-27T10:08:04.633Z,66.18
2018-02-27T10:09:04.621Z,66.09
2018-02-27T10:10:58.023Z,66.47
2018-02-27T10:11:58.017Z,66.28
2018-02-27T10:13:50.923Z,66.09
2018-02-27T10:14:50.912Z,65.90
2018-02-27T10:16:43.878Z,66.47
2018-02-27T10:17:43.810Z,66.09
2018-02-27T10:19:36.700Z,67.03
2018-02-27T10:20:36.713Z,66.47
2018-02-27T10:22:29.636Z,66.94
2018-02-27T10:23:29.620Z,66.56
2018-02-27T10:25:22.507Z,67.32
2018-02-27T10:26:22.526Z,67.13
2018-02-27T10:28:15.454Z,67.22
2018-02-27T10:29:15.449Z,67.03
2018-02-27T10:31:08.332Z,67.69
2018-02-27T10:32:08.319Z,67.79
2018-02-27T10:34:01.227Z,67.50
2018-02-27T10:35:01.218Z,67.22
2018-02-27T10:36:54.133Z,66.56
2018-02-27T10:37:54.117Z,66.75
2018-02-27T10:39:47.008Z,67.13
2018-02-27T10:40:47.015Z,67.50
2018-02-27T10:42:39.948Z,67.22
2018-02-27T10:43:39.929Z,67.07
2018-02-27T10:45:32.820Z,67.44
2018-02-27T10:46:32.832Z,66.69
2018-02-27T10:48:25.755Z,66.03
2018-02-27T10:49:25.730Z,66.12
2018-02-27T10:51:18.631Z,65.65
2018-02-27T10:52:18.626Z,64.51
2018-02-27T10:54:12.005Z,63.38
2018-02-27T10:55:12.030Z,63.95
2018-02-27T10:57:04.925Z,63.95
2018-02-27T10:58:04.916Z,63.10
2018-02-27T10:59:57.817Z,62.34
2018-02-27T11:00:57.828Z,62.44
2018-02-27T11:02:51.248Z,63.00
2018-02-27T11:03:51.241Z,62.25
2018-02-27T11:05:44.149Z,62.34
2018-02-27T11:06:44.140Z,62.34
2018-02-27T11:08:37.051Z,61.77
2018-02-27T11:09:37.038Z,61.02
2018-02-27T11:11:29.964Z,61.49
2018-02-27T11:12:29.957Z,61.02
2018-02-27T11:14:22.856Z,60.64
2018-02-27T11:15:22.862Z,60.17
2018-02-27T11:17:16.271Z,61.30
2018-02-27T11:18:16.262Z,60.93
2018-02-27T11:20:09.151Z,62.09
2018-02-27T11:21:09.163Z,61.61
2018-02-27T11:23:02.569Z,61.33
2018-02-27T11:24:02.561Z,61.24
2018-02-27T11:25:55.462Z,60.67
2018-02-27T11:26:55.473Z,60.77
2018-02-27T11:28:48.381Z,60.58
2018-02-27T11:29:48.371Z,60.67
2018-02-27T11:31:41.283Z,60.77
2018-02-27T11:32:41.278Z,61.80
2018-02-27T11:34:34.167Z,62.18
2018-02-27T11:35:34.179Z,62.56
2018-02-27T11:37:27.091Z,61.99
2018-02-27T11:38:27.084Z,61.90
2018-02-27T11:40:19.977Z,62.94
2018-02-27T11:41:19.993Z,63.23
2018-02-27T11:43:13.406Z,62.47
2018-02-27T11:44:13.400Z,62.44
2018-02-27T11:46:06.304Z,62.34
2018-02-27T11:47:06.298Z,63.48
2018-02-27T11:48:59.706Z,64.54
2018-02-27T11:49:59.699Z,64.64
2018-02-27T11:51:52.605Z,65.11
2018-02-27T11:52:52.598Z,65.78
2018-02-27T11:54:45.489Z,64.45
2018-02-27T11:55:45.501Z,64.83
2018-02-27T11:57:38.411Z,63.98
2018-02-27T11:58:38.404Z,63.89
2018-02-27T12:00:31.794Z,63.79
2018-02-27T12:01:31.807Z,63.23
2018-02-27T12:03:24.718Z,63.60
2018-02-27T12:04:24.734Z,63.42
2018-02-27T12:06:17.622Z,63.32
2018-02-27T12:07:17.630Z,62.94
2018-02-27T12:09:10.538Z,61.43
2018-02-27T12:10:10.531Z,60.20
2018-02-27T12:12:03.444Z,59.44
2018-02-27T12:13:03.438Z,60.20
2018-02-27T12:14:56.327Z,61.05
2018-02-27T12:15:56.341Z,61.24
2018-02-27T12:17:49.255Z,59.44
2018-02-27T12:18:49.248Z,59.00
2018-02-27T12:20:42.142Z,57.74
2018-02-27T12:21:42.152Z,58.15
2018-02-27T12:23:35.071Z,59.47
2018-02-27T12:24:35.064Z,60.23
2018-02-27T12:26:27.965Z,59.76
2018-02-27T12:27:27.969Z,59.85
2018-02-27T12:29:20.880Z,59.47
2018-02-27T12:30:20.887Z,59.38
2018-02-27T12:32:13.784Z,59.57
2018-02-27T12:33:13.777Z,58.53
2018-02-27T12:35:07.166Z,58.53
2018-02-27T12:36:07.175Z,58.62
2018-02-27T12:38:00.085Z,58.69
2018-02-27T12:39:00.086Z,58.12
2018-02-27T12:40:53.038Z,58.78
2018-02-27T12:41:53.055Z,58.78
2018-02-27T12:43:46.013Z,59.44
2018-02-27T12:44:46.011Z,59.92
2018-02-27T12:46:39.970Z,59.25
2018-02-27T12:47:39.983Z,59.73
2018-02-27T12:49:32.944Z,59.82
2018-02-27T12:50:32.945Z,59.35
2018-02-27T12:52:25.900Z,59.63
2018-02-27T12:53:25.897Z,60.17
2018-02-27T12:55:20.050Z,60.30
2018-02-27T12:56:20.052Z,60.64
2018-02-27T12:58:13.086Z,60.83
2018-02-27T12:59:13.036Z,60.39
2018-02-27T13:01:06.413Z,60.30
2018-02-27T13:02:06.425Z,60.08
2018-02-27T13:03:59.349Z,60.27
2018-02-27T13:04:59.359Z,60.11
2018-02-27T13:06:52.227Z,58.94
2018-02-27T13:07:52.226Z,58.94
2018-02-27T13:09:45.627Z,58.94
2018-02-27T13:10:45.622Z,58.75
2018-02-27T13:12:38.531Z,58.09
2018-02-27T13:13:38.531Z,58.84
2018-02-27T13:15:31.933Z,58.94
2018-02-27T13:16:31.942Z,59.03
2018-02-27T13:18:24.870Z,59.06
2018-02-27T13:19:24.858Z,59.25
2018-02-27T13:21:17.784Z,59.06
2018-02-27T13:22:17.760Z,58.69
2018-02-27T13:24:10.686Z,57.27
2018-02-27T13:25:10.673Z,56.80
2018-02-27T13:27:03.606Z,55.38
2018-02-27T13:28:03.599Z,55.38
2018-02-27T13:29:56.511Z,55.10
2018-02-27T13:30:56.504Z,54.81
2018-02-27T13:32:49.436Z,54.91
2018-02-27T13:33:49.410Z,55.10
2018-02-27T13:35:42.314Z,55.76
2018-02-27T13:36:42.320Z,55.66
2018-02-27T13:38:35.232Z,55.38
2018-02-27T13:39:35.233Z,54.46
2018-02-27T13:41:28.135Z,53.23
2018-02-27T13:42:28.135Z,53.20
2018-02-27T13:44:21.051Z,52.95
2018-02-27T13:45:21.048Z,52.67
2018-02-27T13:47:13.937Z,52.57
2018-02-27T13:48:13.947Z,51.34
2018-02-27T13:50:06.875Z,50.49
2018-02-27T13:51:06.859Z,50.96
2018-02-27T13:52:59.770Z,51.06
2018-02-27T13:53:59.762Z,51.43
2018-02-27T13:55:52.658Z,51.06
2018-02-27T13:56:52.666Z,51.15
2018-02-27T13:58:45.578Z,51.34
2018-02-27T13:59:45.572Z,51.81
2018-02-27T14:01:38.468Z,52.48
2018-02-27T14:02:38.526Z,52.19
2018-02-27T14:04:31.393Z,53.05
2018-02-27T14:05:31.390Z,52.86
2018-02-27T14:07:24.288Z,52.86
2018-02-27T14:08:24.293Z,52.86
2018-02-27T14:10:17.213Z,52.38
2018-02-27T14:11:18.201Z,52.48
2018-02-27T14:13:10.120Z,52.57
2018-02-27T14:14:10.104Z,52.38
2018-02-27T14:16:03.001Z,53.33
2018-02-27T14:17:03.012Z,53.89
2018-02-27T14:18:56.418Z,53.80
2018-02-27T14:19:56.408Z,53.80
2018-02-27T14:21:49.302Z,53.05
2018-02-27T14:22:49.315Z,52.48
2018-02-27T14:24:42.220Z,51.81
2018-02-27T14:25:42.215Z,51.22
2018-02-27T14:27:35.106Z,50.94
2018-02-27T14:28:35.120Z,51.69
2018-02-27T14:30:28.026Z,52.45
2018-02-27T14:31:28.019Z,52.55
2018-02-27T14:33:20.937Z,53.20
2018-02-27T14:34:20.920Z,53.20
2018-02-27T14:36:15.305Z,53.39
2018-02-27T14:37:15.325Z,53.49
2018-02-27T14:39:08.230Z,53.87
2018-02-27T14:40:08.219Z,53.30
2018-02-27T14:42:01.108Z,52.64
2018-02-27T14:43:01.119Z,53.02
2018-02-27T14:44:54.028Z,52.55
2018-02-27T14:45:54.043Z,52.26
2018-02-27T14:47:46.908Z,52.26
2018-02-27T14:48:46.923Z,52.19
2018-02-27T14:50:39.831Z,51.91
2018-02-27T14:51:39.825Z,52.48
2018-02-27T14:53:32.740Z,50.96
2018-02-27T14:54:32.725Z,49.73
2018-02-27T14:56:25.617Z,49.64
2018-02-27T14:57:25.631Z,48.50
2018-02-27T14:59:18.540Z,48.50
2018-02-27T15:00:18.534Z,48.60
2018-02-27T15:02:11.424Z,50.87
2018-02-27T15:03:11.437Z,52.48
2018-02-27T15:05:04.345Z,54.08
2018-02-27T15:06:04.339Z,54.27
2018-02-27T15:07:57.228Z,54.91
2018-02-27T15:08:57.240Z,56.04
2018-02-27T15:10:50.148Z,58.22
2018-02-27T15:11:50.141Z,58.87
2018-02-27T15:13:43.084Z,59.63
2018-02-27T15:14:43.042Z,61.05
2018-02-27T15:16:35.955Z,62.37
2018-02-27T15:17:35.952Z,62.37
2018-02-27T15:19:28.859Z,62.47
2018-02-27T15:20:28.854Z,62.94
2018-02-27T15:22:21.802Z,63.32
2018-02-27T15:23:21.799Z,64.07
2018-02-27T15:25:14.686Z,64.83
2018-02-27T15:26:14.680Z,65.59
2018-02-27T15:28:07.658Z,66.12
2018-02-27T15:29:07.674Z,66.50
2018-02-27T15:31:00.587Z,66.03
2018-02-27T15:32:00.582Z,66.06
2018-02-27T15:33:53.856Z,66.25
2018-02-27T15:34:53.834Z,66.35
2018-02-27T15:36:47.256Z,66.53
2018-02-27T15:37:47.251Z,65.87
2018-02-27T15:39:40.207Z,64.45
2018-02-27T15:40:40.201Z,64.61
2018-02-27T15:42:33.147Z,64.51
2018-02-27T15:43:33.156Z,64.79
2018-02-27T15:45:26.124Z,64.17
2018-02-27T15:46:26.114Z,63.60
2018-02-27T15:48:19.058Z,63.23
2018-02-27T15:49:19.069Z,63.32
2018-02-27T15:51:14.598Z,63.51
2018-02-27T15:52:14.600Z,64.36
2018-02-27T15:54:07.541Z,64.17
2018-02-27T15:55:07.538Z,64.07
2018-02-27T15:57:01.006Z,64.26
2018-02-27T15:58:01.010Z,63.98
2018-02-27T15:59:53.959Z,63.89
2018-02-27T16:00:53.950Z,64.36
2018-02-27T16:02:46.911Z,64.83
2018-02-27T16:03:46.911Z,65.36
2018-02-27T16:05:39.871Z,66.12
2018-02-27T16:06:39.865Z,66.78
2018-02-27T16:08:33.329Z,67.25
2018-02-27T16:09:33.338Z,67.16
2018-02-27T16:11:26.292Z,67.82
2018-02-27T16:12:26.285Z,67.44
2018-02-27T16:14:19.243Z,67.54
2018-02-27T16:15:19.235Z,67.07
2018-02-27T16:17:12.179Z,67.29
2018-02-27T16:18:12.189Z,67.44
2018-02-27T16:20:05.155Z,67.76
2018-02-27T16:21:05.148Z,67.66
2018-02-27T16:22:58.086Z,68.42
2018-02-27T16:23:58.101Z,67.95
2018-02-27T16:25:51.060Z,69.05
2018-02-27T16:26:51.053Z,68.67
2018-02-27T16:28:43.994Z,69.56
2018-02-27T16:29:44.006Z,69.93
2018-02-27T16:31:36.988Z,70.40
2018-02-27T16:32:36.964Z,70.47
2018-02-27T16:34:29.937Z,71.03
2018-02-27T16:35:29.913Z,72.07
2018-02-27T16:37:23.368Z,71.79
2018-02-27T16:38:23.380Z,71.98
2018-02-27T16:40:16.341Z,72.45
2018-02-27T16:41:16.334Z,72.26
2018-02-27T16:43:09.277Z,72.64
2018-02-27T16:44:09.288Z,72.64
2018-02-27T16:46:02.258Z,73.02
2018-02-27T16:47:02.243Z,73.30
2018-02-27T16:48:55.198Z,73.58
2018-02-27T16:49:55.196Z,74.05
2018-02-27T16:51:48.173Z,74.05
2018-02-27T16:52:48.163Z,74.43
2018-02-27T16:54:41.117Z,74.34
2018-02-27T16:55:41.109Z,74.24
2018-02-27T16:57:34.048Z,74.05
2018-02-27T16:58:34.058Z,73.96
2018-02-27T17:00:27.045Z,73.96
2018-02-27T17:01:27.021Z,73.30
2018-02-27T17:03:19.968Z,73.39
2018-02-27T17:04:19.966Z,72.83
2018-02-27T17:06:12.928Z,72.92
2018-02-27T17:07:12.924Z,73.30
2018-02-27T17:09:05.895Z,73.11
2018-02-27T17:10:05.989Z,73.49
2018-02-27T17:11:59.363Z,73.39
2018-02-27T17:12:59.346Z,73.21
2018-02-27T17:14:52.303Z,73.49
2018-02-27T17:15:52.298Z,73.11
2018-02-27T17:17:45.239Z,73.49
2018-02-27T17:18:45.250Z,73.11
2018-02-27T17:20:38.214Z,73.11
2018-02-27T17:21:38.214Z,72.73
2018-02-27T17:23:31.149Z,72.73
2018-02-27T17:24:31.162Z,73.21
2018-02-27T17:26:24.150Z,73.02
2018-02-27T17:27:24.116Z,73.21
2018-02-27T17:29:17.058Z,73.30
2018-02-27T17:30:17.073Z,73.39
2018-02-27T17:32:10.552Z,73.30
2018-02-27T17:33:10.543Z,73.11
2018-02-27T17:35:05.035Z,73.49
2018-02-27T17:36:05.028Z,74.24
2018-02-27T17:37:58.517Z,73.96
2018-02-27T17:38:58.491Z,74.24
2018-02-27T17:40:51.962Z,74.24
2018-02-27T17:41:51.960Z,73.58
2018-02-27T17:43:45.412Z,73.02
2018-02-27T17:44:45.423Z,73.30
2018-02-27T17:46:38.423Z,73.21
2018-02-27T17:47:38.378Z,73.21
2018-02-27T17:49:31.532Z,73.30
2018-02-27T17:50:31.529Z,73.30
2018-02-27T17:52:24.506Z,73.30
2018-02-27T17:53:24.524Z,74.24
2018-02-27T17:55:18.498Z,74.05
2018-02-27T17:56:18.488Z,73.77
2018-02-27T17:58:11.502Z,74.24
2018-02-27T17:59:11.422Z,73.96
2018-02-27T18:01:04.400Z,74.62
2018-02-27T18:02:04.393Z,73.93
2018-02-27T18:03:57.329Z,74.34
2018-02-27T18:04:57.353Z,74.02
2018-02-27T18:06:51.826Z,74.87
2018-02-27T18:07:51.820Z,74.87
2018-02-27T18:09:45.282Z,74.68
2018-02-27T18:10:45.288Z,74.21
2018-02-27T18:12:38.259Z,74.77
2018-02-27T18:13:38.247Z,74.30
2018-02-27T18:15:31.201Z,75.05
2018-02-27T18:16:31.195Z,74.96
2018-02-27T18:18:24.141Z,75.09
2018-02-27T18:19:24.151Z,75.05
2018-02-27T18:21:17.113Z,75.05
2018-02-27T18:22:17.103Z,75.24
2018-02-27T18:24:10.055Z,75.09
2018-02-27T18:25:10.065Z,74.77
2018-02-27T18:27:03.019Z,75.19
2018-02-27T18:28:03.011Z,75.43
2018-02-27T18:29:55.958Z,74.96
2018-02-27T18:30:55.971Z,74.87
2018-02-27T18:32:48.953Z,75.62